sensor_id;sensor_type;location;lat;lon;timestamp;temperature;humidity
15698;DHT22;7949;48.726;9.102;2022-10-23T00:00:37;10.50;99.90
15698;DHT22;7949;48.726;9.102;2022-10-23T00:03:06;10.50;99.90
15698;DHT22;7949;48.726;9.102;2022-10-23T00:05:32;10.50;99.90
15698;DHT22;7949;48.726;9.102;2022-10-23T00:07:59;10.40;99.90
15698;DHT22;7949;48.726;9.102;2022-10-23T00:10:27;10.30;99.90
15698;DHT22;7949;48.726;9.102;2022-10-23T00:12:54;10.30;99.90
15698;DHT22;7949;48.726;9.102;2022-10-23T00:15:22;10.20;99.90
15698;DHT22;7949;48.726;9.102;2022-10-23T00:17:49;10.30;99.90
15698;DHT22;7949;48.726;9.102;2022-10-23T00:20:17;10.30;99.90
15698;DHT22;7949;48.726;9.102;2022-10-23T00:22:44;10.20;99.90
15698;DHT22;7949;48.726;9.102;2022-10-23T00:25:11;10.20;99.90
15698;DHT22;7949;48.726;9.102;2022-10-23T00:27:38;10.10;99.90
15698;DHT22;7949;48.726;9.102;2022-10-23T00:30:05;10.10;99.90
15698;DHT22;7949;48.726;9.102;2022-10-23T00:32:32;10.10;99.90
15698;DHT22;7949;48.726;9.102;2022-10-23T00:34:59;10.10;99.90
15698;DHT22;7949;48.726;9.102;2022-10-23T00:37:27;10.00;99.90
15698;DHT22;7949;48.726;9.102;2022-10-23T00:39:54;10.10;99.90
15698;DHT22;7949;48.726;9.102;2022-10-23T00:42:21;10.00;99.90
15698;DHT22;7949;48.726;9.102;2022-10-23T00:45:08;10.00;99.90
15698;DHT22;7949;48.726;9.102;2022-10-23T00:47:35;10.00;99.90
15698;DHT22;7949;48.726;9.102;2022-10-23T00:50:02;10.00;99.90
15698;DHT22;7949;48.726;9.102;2022-10-23T00:52:31;10.00;99.90
15698;DHT22;7949;48.726;9.102;2022-10-23T00:54:59;10.20;99.90
15698;DHT22;7949;48.726;9.102;2022-10-23T00:57:27;10.20;99.90
15698;DHT22;7949;48.726;9.102;2022-10-23T00:59:53;10.30;99.90
15698;DHT22;7949;48.726;9.102;2022-10-23T01:02:21;10.40;99.90
15698;DHT22;7949;48.726;9.102;2022-10-23T01:04:47;10.50;99.90
15698;DHT22;7949;48.726;9.102;2022-10-23T01:07:19;10.50;99.90
15698;DHT22;7949;48.726;9.102;2022-10-23T01:10:01;10.50;99.90
15698;DHT22;7949;48.726;9.102;2022-10-23T01:12:34;10.50;99.90
15698;DHT22;7949;48.726;9.102;2022-10-23T01:15:08;10.50;99.90
15698;DHT22;7949;48.726;9.102;2022-10-23T01:17:41;11.00;99.90
15698;DHT22;7949;48.726;9.102;2022-10-23T01:20:18;10.40;99.90
15698;DHT22;7949;48.726;9.102;2022-10-23T01:25:57;10.30;99.90
15698;DHT22;7949;48.726;9.102;2022-10-23T01:28:29;10.20;99.90
15698;DHT22;7949;48.726;9.102;2022-10-23T01:30:58;10.10;99.90
15698;DHT22;7949;48.726;9.102;2022-10-23T01:33:28;10.10;99.90
15698;DHT22;7949;48.726;9.102;2022-10-23T01:36:00;10.00;99.90
15698;DHT22;7949;48.726;9.102;2022-10-23T01:38:32;10.00;99.90
15698;DHT22;7949;48.726;9.102;2022-10-23T01:41:04;9.90;99.90
15698;DHT22;7949;48.726;9.102;2022-10-23T01:43:39;9.90;99.90
15698;DHT22;7949;48.726;9.102;2022-10-23T01:46:10;9.90;99.90
15698;DHT22;7949;48.726;9.102;2022-10-23T01:48:40;9.80;99.90
15698;DHT22;7949;48.726;9.102;2022-10-23T01:51:09;9.80;99.90
15698;DHT22;7949;48.726;9.102;2022-10-23T01:53:40;9.80;99.90
15698;DHT22;7949;48.726;9.102;2022-10-23T01:56:11;10.60;99.90
15698;DHT22;7949;48.726;9.102;2022-10-23T01:58:42;10.20;99.90
15698;DHT22;7949;48.726;9.102;2022-10-23T02:01:12;9.70;99.90
15698;DHT22;7949;48.726;9.102;2022-10-23T02:03:41;9.70;99.90
15698;DHT22;7949;48.726;9.102;2022-10-23T02:06:09;9.80;99.90
15698;DHT22;7949;48.726;9.102;2022-10-23T02:08:36;9.70;99.90
15698;DHT22;7949;48.726;9.102;2022-10-23T02:11:07;9.80;99.90
15698;DHT22;7949;48.726;9.102;2022-10-23T02:13:38;9.70;99.90
15698;DHT22;7949;48.726;9.102;2022-10-23T02:16:15;9.70;99.90
15698;DHT22;7949;48.726;9.102;2022-10-23T02:18:50;9.80;99.90
15698;DHT22;7949;48.726;9.102;2022-10-23T02:21:26;9.80;99.90
15698;DHT22;7949;48.726;9.102;2022-10-23T02:23:58;9.90;99.90
15698;DHT22;7949;48.726;9.102;2022-10-23T02:26:29;9.90;99.90
15698;DHT22;7949;48.726;9.102;2022-10-23T02:29:02;9.90;99.90
15698;DHT22;7949;48.726;9.102;2022-10-23T02:31:32;9.80;99.90
15698;DHT22;7949;48.726;9.102;2022-10-23T02:33:59;9.90;99.90
15698;DHT22;7949;48.726;9.102;2022-10-23T02:36:26;9.80;99.90
15698;DHT22;7949;48.726;9.102;2022-10-23T02:38:53;9.90;99.90
15698;DHT22;7949;48.726;9.102;2022-10-23T02:41:37;9.90;99.90
15698;DHT22;7949;48.726;9.102;2022-10-23T02:44:18;9.90;99.90
15698;DHT22;7949;48.726;9.102;2022-10-23T02:46:57;9.90;99.90
15698;DHT22;7949;48.726;9.102;2022-10-23T02:49:34;9.90;99.90
15698;DHT22;7949;48.726;9.102;2022-10-23T02:52:08;9.90;99.90
15698;DHT22;7949;48.726;9.102;2022-10-23T02:54:46;9.80;99.90
15698;DHT22;7949;48.726;9.102;2022-10-23T02:57:21;9.80;99.90
15698;DHT22;7949;48.726;9.102;2022-10-23T02:59:56;9.80;99.90
15698;DHT22;7949;48.726;9.102;2022-10-23T03:02:31;9.80;99.90
15698;DHT22;7949;48.726;9.102;2022-10-23T03:04:59;9.80;99.90
15698;DHT22;7949;48.726;9.102;2022-10-23T03:07:28;9.80;99.90
15698;DHT22;7949;48.726;9.102;2022-10-23T03:09:54;9.70;99.90
15698;DHT22;7949;48.726;9.102;2022-10-23T03:12:21;9.70;99.90
15698;DHT22;7949;48.726;9.102;2022-10-23T03:14:48;9.80;99.90
15698;DHT22;7949;48.726;9.102;2022-10-23T03:17:15;9.70;99.90
15698;DHT22;7949;48.726;9.102;2022-10-23T03:19:43;9.60;99.90
15698;DHT22;7949;48.726;9.102;2022-10-23T03:22:09;9.60;99.90
15698;DHT22;7949;48.726;9.102;2022-10-23T03:24:36;9.60;99.90
15698;DHT22;7949;48.726;9.102;2022-10-23T03:27:03;9.60;99.90
15698;DHT22;7949;48.726;9.102;2022-10-23T03:29:30;9.60;99.90
15698;DHT22;7949;48.726;9.102;2022-10-23T03:31:57;9.60;99.90
15698;DHT22;7949;48.726;9.102;2022-10-23T03:34:24;9.60;99.90
15698;DHT22;7949;48.726;9.102;2022-10-23T03:36:52;9.60;99.90
15698;DHT22;7949;48.726;9.102;2022-10-23T03:39:19;9.50;99.90
15698;DHT22;7949;48.726;9.102;2022-10-23T03:41:46;9.50;99.90
15698;DHT22;7949;48.726;9.102;2022-10-23T03:44:13;9.50;99.90
15698;DHT22;7949;48.726;9.102;2022-10-23T03:46:40;9.60;99.90
15698;DHT22;7949;48.726;9.102;2022-10-23T03:49:06;9.60;99.90
15698;DHT22;7949;48.726;9.102;2022-10-23T03:51:34;9.60;99.90
15698;DHT22;7949;48.726;9.102;2022-10-23T03:54:02;9.70;99.90
15698;DHT22;7949;48.726;9.102;2022-10-23T03:56:29;9.70;99.90
15698;DHT22;7949;48.726;9.102;2022-10-23T03:58:56;9.70;99.90
15698;DHT22;7949;48.726;9.102;2022-10-23T04:01:23;9.70;99.90
15698;DHT22;7949;48.726;9.102;2022-10-23T04:03:50;9.70;99.90
15698;DHT22;7949;48.726;9.102;2022-10-23T04:06:17;9.70;99.90
15698;DHT22;7949;48.726;9.102;2022-10-23T04:08:44;9.70;99.90
15698;DHT22;7949;48.726;9.102;2022-10-23T04:11:13;9.70;99.90
15698;DHT22;7949;48.726;9.102;2022-10-23T04:13:39;9.60;99.90
15698;DHT22;7949;48.726;9.102;2022-10-23T04:16:06;9.60;99.90
15698;DHT22;7949;48.726;9.102;2022-10-23T04:18:33;9.50;99.90
15698;DHT22;7949;48.726;9.102;2022-10-23T04:21:00;9.60;99.90
15698;DHT22;7949;48.726;9.102;2022-10-23T04:23:27;9.60;99.90
15698;DHT22;7949;48.726;9.102;2022-10-23T04:25:55;9.70;99.90
15698;DHT22;7949;48.726;9.102;2022-10-23T04:28:24;10.60;99.90
15698;DHT22;7949;48.726;9.102;2022-10-23T04:30:51;9.60;99.90
15698;DHT22;7949;48.726;9.102;2022-10-23T04:33:17;10.20;99.90
15698;DHT22;7949;48.726;9.102;2022-10-23T04:35:44;9.60;99.90
15698;DHT22;7949;48.726;9.102;2022-10-23T04:38:11;9.70;99.90
15698;DHT22;7949;48.726;9.102;2022-10-23T04:40:38;9.70;99.90
15698;DHT22;7949;48.726;9.102;2022-10-23T04:43:04;9.80;99.90
15698;DHT22;7949;48.726;9.102;2022-10-23T04:45:32;9.80;99.90
15698;DHT22;7949;48.726;9.102;2022-10-23T04:47:59;9.80;99.90
15698;DHT22;7949;48.726;9.102;2022-10-23T04:50:26;9.80;99.90
15698;DHT22;7949;48.726;9.102;2022-10-23T04:52:53;9.80;99.90
15698;DHT22;7949;48.726;9.102;2022-10-23T04:55:20;9.90;99.90
15698;DHT22;7949;48.726;9.102;2022-10-23T04:57:47;9.90;99.90
15698;DHT22;7949;48.726;9.102;2022-10-23T05:00:14;10.10;99.90
15698;DHT22;7949;48.726;9.102;2022-10-23T05:02:42;10.00;99.90
15698;DHT22;7949;48.726;9.102;2022-10-23T05:05:09;10.10;99.90
15698;DHT22;7949;48.726;9.102;2022-10-23T05:07:37;10.10;99.90
15698;DHT22;7949;48.726;9.102;2022-10-23T05:10:05;10.20;99.90
15698;DHT22;7949;48.726;9.102;2022-10-23T05:12:32;10.10;99.90
15698;DHT22;7949;48.726;9.102;2022-10-23T05:14:58;10.10;99.90
15698;DHT22;7949;48.726;9.102;2022-10-23T05:17:28;10.20;99.90
15698;DHT22;7949;48.726;9.102;2022-10-23T05:19:57;10.90;99.90
15698;DHT22;7949;48.726;9.102;2022-10-23T05:22:27;10.20;99.90
15698;DHT22;7949;48.726;9.102;2022-10-23T05:24:55;10.20;99.90
15698;DHT22;7949;48.726;9.102;2022-10-23T05:27:23;10.20;99.90
15698;DHT22;7949;48.726;9.102;2022-10-23T05:29:50;10.40;99.90
15698;DHT22;7949;48.726;9.102;2022-10-23T05:32:16;10.20;99.90
15698;DHT22;7949;48.726;9.102;2022-10-23T05:34:43;10.20;99.90
15698;DHT22;7949;48.726;9.102;2022-10-23T05:37:13;10.20;99.90
15698;DHT22;7949;48.726;9.102;2022-10-23T05:39:41;10.60;99.90
15698;DHT22;7949;48.726;9.102;2022-10-23T05:42:08;10.20;99.90
15698;DHT22;7949;48.726;9.102;2022-10-23T05:44:35;10.10;99.90
15698;DHT22;7949;48.726;9.102;2022-10-23T05:47:02;10.20;99.90
15698;DHT22;7949;48.726;9.102;2022-10-23T05:49:29;10.20;99.90
15698;DHT22;7949;48.726;9.102;2022-10-23T05:51:56;10.20;99.90
15698;DHT22;7949;48.726;9.102;2022-10-23T05:54:24;10.30;99.90
15698;DHT22;7949;48.726;9.102;2022-10-23T05:56:51;10.30;99.90
15698;DHT22;7949;48.726;9.102;2022-10-23T05:59:18;10.30;99.90
15698;DHT22;7949;48.726;9.102;2022-10-23T06:01:44;10.20;99.90
15698;DHT22;7949;48.726;9.102;2022-10-23T06:04:11;10.30;99.90
15698;DHT22;7949;48.726;9.102;2022-10-23T06:06:38;10.30;99.90
15698;DHT22;7949;48.726;9.102;2022-10-23T06:09:05;10.30;99.90
15698;DHT22;7949;48.726;9.102;2022-10-23T06:11:33;10.70;99.90
15698;DHT22;7949;48.726;9.102;2022-10-23T06:14:00;10.30;99.90
15698;DHT22;7949;48.726;9.102;2022-10-23T06:16:26;10.30;99.90
15698;DHT22;7949;48.726;9.102;2022-10-23T06:18:54;10.30;99.90
15698;DHT22;7949;48.726;9.102;2022-10-23T06:21:22;10.40;99.90
15698;DHT22;7949;48.726;9.102;2022-10-23T06:23:49;10.40;99.90
15698;DHT22;7949;48.726;9.102;2022-10-23T06:26:17;10.40;99.90
15698;DHT22;7949;48.726;9.102;2022-10-23T06:28:46;10.40;99.90
15698;DHT22;7949;48.726;9.102;2022-10-23T06:31:14;10.50;99.90
15698;DHT22;7949;48.726;9.102;2022-10-23T06:33:43;10.50;99.90
15698;DHT22;7949;48.726;9.102;2022-10-23T06:36:10;10.50;99.90
15698;DHT22;7949;48.726;9.102;2022-10-23T06:38:37;11.30;99.90
15698;DHT22;7949;48.726;9.102;2022-10-23T06:41:06;10.60;99.90
15698;DHT22;7949;48.726;9.102;2022-10-23T06:43:33;10.60;99.90
15698;DHT22;7949;48.726;9.102;2022-10-23T06:46:03;10.60;99.90
15698;DHT22;7949;48.726;9.102;2022-10-23T06:48:30;10.60;99.90
15698;DHT22;7949;48.726;9.102;2022-10-23T06:50:56;10.70;99.90
15698;DHT22;7949;48.726;9.102;2022-10-23T06:53:23;10.80;99.90
15698;DHT22;7949;48.726;9.102;2022-10-23T06:55:51;10.80;99.90
15698;DHT22;7949;48.726;9.102;2022-10-23T06:58:17;10.90;99.90
15698;DHT22;7949;48.726;9.102;2022-10-23T07:00:44;10.90;99.90
15698;DHT22;7949;48.726;9.102;2022-10-23T07:03:12;11.00;99.90
15698;DHT22;7949;48.726;9.102;2022-10-23T07:05:39;11.40;99.90
15698;DHT22;7949;48.726;9.102;2022-10-23T07:08:09;11.10;99.90
15698;DHT22;7949;48.726;9.102;2022-10-23T07:10:36;11.10;99.90
15698;DHT22;7949;48.726;9.102;2022-10-23T07:13:03;11.20;99.90
15698;DHT22;7949;48.726;9.102;2022-10-23T07:15:30;11.30;99.90
15698;DHT22;7949;48.726;9.102;2022-10-23T07:17:56;11.40;99.90
15698;DHT22;7949;48.726;9.102;2022-10-23T07:20:25;11.50;99.90
15698;DHT22;7949;48.726;9.102;2022-10-23T07:22:52;11.60;99.90
15698;DHT22;7949;48.726;9.102;2022-10-23T07:25:20;11.70;99.90
15698;DHT22;7949;48.726;9.102;2022-10-23T07:27:47;11.80;99.90
15698;DHT22;7949;48.726;9.102;2022-10-23T07:30:14;11.90;99.90
15698;DHT22;7949;48.726;9.102;2022-10-23T07:32:42;12.00;99.90
15698;DHT22;7949;48.726;9.102;2022-10-23T07:35:11;12.10;99.90
15698;DHT22;7949;48.726;9.102;2022-10-23T07:37:39;12.20;99.90
15698;DHT22;7949;48.726;9.102;2022-10-23T07:40:07;12.40;99.90
15698;DHT22;7949;48.726;9.102;2022-10-23T07:42:34;12.50;99.90
15698;DHT22;7949;48.726;9.102;2022-10-23T07:45:01;12.60;99.90
15698;DHT22;7949;48.726;9.102;2022-10-23T07:47:28;12.70;99.90
15698;DHT22;7949;48.726;9.102;2022-10-23T07:49:57;12.80;99.90
15698;DHT22;7949;48.726;9.102;2022-10-23T07:52:24;12.90;99.90
15698;DHT22;7949;48.726;9.102;2022-10-23T07:54:52;13.00;99.90
15698;DHT22;7949;48.726;9.102;2022-10-23T07:57:19;13.10;99.90
15698;DHT22;7949;48.726;9.102;2022-10-23T07:59:46;13.20;99.90
15698;DHT22;7949;48.726;9.102;2022-10-23T08:02:14;13.30;99.90
15698;DHT22;7949;48.726;9.102;2022-10-23T08:04:41;13.70;99.90
15698;DHT22;7949;48.726;9.102;2022-10-23T08:07:08;13.50;99.90
15698;DHT22;7949;48.726;9.102;2022-10-23T08:09:35;13.60;99.90
15698;DHT22;7949;48.726;9.102;2022-10-23T08:12:04;13.70;99.90
15698;DHT22;7949;48.726;9.102;2022-10-23T08:14:31;13.90;99.90
15698;DHT22;7949;48.726;9.102;2022-10-23T08:16:58;14.00;99.90
15698;DHT22;7949;48.726;9.102;2022-10-23T08:19:25;14.20;99.90
15698;DHT22;7949;48.726;9.102;2022-10-23T08:21:52;14.30;99.90
15698;DHT22;7949;48.726;9.102;2022-10-23T08:24:21;14.50;99.90
15698;DHT22;7949;48.726;9.102;2022-10-23T08:26:48;14.70;99.90
15698;DHT22;7949;48.726;9.102;2022-10-23T08:29:17;14.80;99.90
15698;DHT22;7949;48.726;9.102;2022-10-23T08:31:43;14.90;99.90
15698;DHT22;7949;48.726;9.102;2022-10-23T08:34:11;15.00;99.90
15698;DHT22;7949;48.726;9.102;2022-10-23T08:36:38;15.10;99.90
15698;DHT22;7949;48.726;9.102;2022-10-23T08:39:05;15.10;99.90
15698;DHT22;7949;48.726;9.102;2022-10-23T08:41:34;15.20;99.90
15698;DHT22;7949;48.726;9.102;2022-10-23T08:44:07;15.20;99.90
15698;DHT22;7949;48.726;9.102;2022-10-23T08:46:39;15.30;99.90
15698;DHT22;7949;48.726;9.102;2022-10-23T08:49:18;15.40;99.90
15698;DHT22;7949;48.726;9.102;2022-10-23T08:51:49;15.40;99.90
15698;DHT22;7949;48.726;9.102;2022-10-23T08:54:20;15.40;99.90
15698;DHT22;7949;48.726;9.102;2022-10-23T08:56:51;15.50;99.90
15698;DHT22;7949;48.726;9.102;2022-10-23T08:59:23;15.50;99.90
15698;DHT22;7949;48.726;9.102;2022-10-23T09:01:58;15.70;99.90
15698;DHT22;7949;48.726;9.102;2022-10-23T09:04:25;15.80;99.90
15698;DHT22;7949;48.726;9.102;2022-10-23T09:06:58;15.90;99.90
15698;DHT22;7949;48.726;9.102;2022-10-23T09:09:44;16.00;99.90
15698;DHT22;7949;48.726;9.102;2022-10-23T09:12:18;16.10;99.90
15698;DHT22;7949;48.726;9.102;2022-10-23T09:15:09;16.20;99.90
15698;DHT22;7949;48.726;9.102;2022-10-23T09:17:41;16.30;99.90
15698;DHT22;7949;48.726;9.102;2022-10-23T09:20:17;16.50;99.90
15698;DHT22;7949;48.726;9.102;2022-10-23T09:22:45;16.60;99.90
15698;DHT22;7949;48.726;9.102;2022-10-23T09:25:17;16.80;99.90
15698;DHT22;7949;48.726;9.102;2022-10-23T09:27:49;16.90;99.90
15698;DHT22;7949;48.726;9.102;2022-10-23T09:30:26;17.10;99.90
15698;DHT22;7949;48.726;9.102;2022-10-23T09:32:54;17.20;99.90
15698;DHT22;7949;48.726;9.102;2022-10-23T09:35:22;17.20;99.90
15698;DHT22;7949;48.726;9.102;2022-10-23T09:37:49;17.40;99.90
15698;DHT22;7949;48.726;9.102;2022-10-23T09:40:24;17.50;99.90
15698;DHT22;7949;48.726;9.102;2022-10-23T09:42:57;17.60;99.90
15698;DHT22;7949;48.726;9.102;2022-10-23T09:45:26;17.60;99.90
15698;DHT22;7949;48.726;9.102;2022-10-23T09:48:09;17.80;99.90
15698;DHT22;7949;48.726;9.102;2022-10-23T09:50:45;17.80;99.90
15698;DHT22;7949;48.726;9.102;2022-10-23T09:53:14;18.10;99.90
15698;DHT22;7949;48.726;9.102;2022-10-23T09:55:42;18.10;99.90
15698;DHT22;7949;48.726;9.102;2022-10-23T09:58:20;18.20;99.90
15698;DHT22;7949;48.726;9.102;2022-10-23T10:00:50;18.40;99.90
15698;DHT22;7949;48.726;9.102;2022-10-23T10:03:21;18.50;99.90
15698;DHT22;7949;48.726;9.102;2022-10-23T10:05:54;18.60;99.90
15698;DHT22;7949;48.726;9.102;2022-10-23T10:08:29;18.70;99.90
15698;DHT22;7949;48.726;9.102;2022-10-23T10:11:00;18.80;99.90
15698;DHT22;7949;48.726;9.102;2022-10-23T10:16:25;19.00;99.90
15698;DHT22;7949;48.726;9.102;2022-10-23T10:19:00;19.10;99.90
15698;DHT22;7949;48.726;9.102;2022-10-23T10:21:36;19.30;99.90
15698;DHT22;7949;48.726;9.102;2022-10-23T10:24:13;19.40;99.90
15698;DHT22;7949;48.726;9.102;2022-10-23T10:26:49;19.40;99.90
15698;DHT22;7949;48.726;9.102;2022-10-23T10:29:22;19.50;99.90
15698;DHT22;7949;48.726;9.102;2022-10-23T10:32:02;19.70;99.90
15698;DHT22;7949;48.726;9.102;2022-10-23T10:34:42;19.80;99.90
15698;DHT22;7949;48.726;9.102;2022-10-23T10:37:20;19.90;99.90
15698;DHT22;7949;48.726;9.102;2022-10-23T10:39:57;20.00;99.90
15698;DHT22;7949;48.726;9.102;2022-10-23T10:42:44;20.40;99.90
15698;DHT22;7949;48.726;9.102;2022-10-23T10:45:18;20.50;99.90
15698;DHT22;7949;48.726;9.102;2022-10-23T10:48:06;20.50;99.90
15698;DHT22;7949;48.726;9.102;2022-10-23T10:50:42;20.50;99.90
15698;DHT22;7949;48.726;9.102;2022-10-23T10:53:19;20.50;99.90
15698;DHT22;7949;48.726;9.102;2022-10-23T10:55:50;20.30;99.90
15698;DHT22;7949;48.726;9.102;2022-10-23T10:58:23;20.20;99.90
15698;DHT22;7949;48.726;9.102;2022-10-23T11:00:54;20.20;99.90
15698;DHT22;7949;48.726;9.102;2022-10-23T11:03:27;20.30;99.90
15698;DHT22;7949;48.726;9.102;2022-10-23T11:05:59;20.50;99.90
15698;DHT22;7949;48.726;9.102;2022-10-23T11:08:32;20.60;99.90
15698;DHT22;7949;48.726;9.102;2022-10-23T11:11:05;20.70;99.90
15698;DHT22;7949;48.726;9.102;2022-10-23T11:13:35;20.70;99.90
15698;DHT22;7949;48.726;9.102;2022-10-23T11:16:11;20.70;99.90
15698;DHT22;7949;48.726;9.102;2022-10-23T11:18:41;20.70;99.90
15698;DHT22;7949;48.726;9.102;2022-10-23T11:21:21;20.70;99.90
15698;DHT22;7949;48.726;9.102;2022-10-23T11:26:55;20.50;99.90
15698;DHT22;7949;48.726;9.102;2022-10-23T11:29:57;20.50;99.90
15698;DHT22;7949;48.726;9.102;2022-10-23T11:32:39;20.60;99.90
15698;DHT22;7949;48.726;9.102;2022-10-23T11:35:25;20.60;99.90
15698;DHT22;7949;48.726;9.102;2022-10-23T11:37:59;20.60;99.90
15698;DHT22;7949;48.726;9.102;2022-10-23T11:40:26;20.60;99.90
15698;DHT22;7949;48.726;9.102;2022-10-23T11:42:54;20.40;99.90
15698;DHT22;7949;48.726;9.102;2022-10-23T11:45:30;20.50;99.90
15698;DHT22;7949;48.726;9.102;2022-10-23T11:47:59;20.60;99.90
15698;DHT22;7949;48.726;9.102;2022-10-23T11:50:29;20.70;99.90
15698;DHT22;7949;48.726;9.102;2022-10-23T11:53:01;20.90;99.90
15698;DHT22;7949;48.726;9.102;2022-10-23T11:55:32;21.00;99.90
15698;DHT22;7949;48.726;9.102;2022-10-23T11:58:16;21.10;99.90
15698;DHT22;7949;48.726;9.102;2022-10-23T12:00:57;21.00;99.90
15698;DHT22;7949;48.726;9.102;2022-10-23T12:03:29;21.00;99.90
15698;DHT22;7949;48.726;9.102;2022-10-23T12:06:01;21.00;99.90
15698;DHT22;7949;48.726;9.102;2022-10-23T12:08:33;21.00;99.90
15698;DHT22;7949;48.726;9.102;2022-10-23T12:11:01;21.20;99.90
15698;DHT22;7949;48.726;9.102;2022-10-23T12:13:31;21.30;99.90
15698;DHT22;7949;48.726;9.102;2022-10-23T12:16:01;21.40;99.90
15698;DHT22;7949;48.726;9.102;2022-10-23T12:18:28;21.30;99.90
15698;DHT22;7949;48.726;9.102;2022-10-23T12:20:57;21.40;99.90
15698;DHT22;7949;48.726;9.102;2022-10-23T12:23:35;21.40;99.90
15698;DHT22;7949;48.726;9.102;2022-10-23T12:26:22;21.40;99.90
15698;DHT22;7949;48.726;9.102;2022-10-23T12:28:57;21.40;99.90
15698;DHT22;7949;48.726;9.102;2022-10-23T12:31:36;21.40;99.90
15698;DHT22;7949;48.726;9.102;2022-10-23T12:34:17;21.50;99.90
15698;DHT22;7949;48.726;9.102;2022-10-23T12:36:59;21.50;99.90
15698;DHT22;7949;48.726;9.102;2022-10-23T12:39:30;21.50;99.90
15698;DHT22;7949;48.726;9.102;2022-10-23T12:41:58;21.60;99.90
15698;DHT22;7949;48.726;9.102;2022-10-23T12:44:26;21.80;99.90
15698;DHT22;7949;48.726;9.102;2022-10-23T12:46:55;22.00;99.90
15698;DHT22;7949;48.726;9.102;2022-10-23T12:49:23;22.30;99.90
15698;DHT22;7949;48.726;9.102;2022-10-23T12:51:55;22.70;99.90
15698;DHT22;7949;48.726;9.102;2022-10-23T12:54:22;23.40;99.90
15698;DHT22;7949;48.726;9.102;2022-10-23T12:56:50;24.00;99.90
15698;DHT22;7949;48.726;9.102;2022-10-23T12:59:20;24.50;99.90
15698;DHT22;7949;48.726;9.102;2022-10-23T13:01:48;24.80;99.90
15698;DHT22;7949;48.726;9.102;2022-10-23T13:04:24;25.20;99.90
15698;DHT22;7949;48.726;9.102;2022-10-23T13:06:53;25.40;99.90
15698;DHT22;7949;48.726;9.102;2022-10-23T13:09:23;25.60;99.90
15698;DHT22;7949;48.726;9.102;2022-10-23T13:11:55;26.00;99.90
15698;DHT22;7949;48.726;9.102;2022-10-23T13:14:30;26.40;99.90
15698;DHT22;7949;48.726;9.102;2022-10-23T13:16:59;26.70;99.90
15698;DHT22;7949;48.726;9.102;2022-10-23T13:19:26;27.00;99.90
15698;DHT22;7949;48.726;9.102;2022-10-23T13:21:53;27.20;99.90
15698;DHT22;7949;48.726;9.102;2022-10-23T13:24:21;27.60;99.90
15698;DHT22;7949;48.726;9.102;2022-10-23T13:26:48;27.10;99.90
15698;DHT22;7949;48.726;9.102;2022-10-23T13:29:20;26.60;99.90
15698;DHT22;7949;48.726;9.102;2022-10-23T13:31:48;26.10;99.90
15698;DHT22;7949;48.726;9.102;2022-10-23T13:34:20;25.50;99.90
15698;DHT22;7949;48.726;9.102;2022-10-23T13:37:18;25.00;99.90
15698;DHT22;7949;48.726;9.102;2022-10-23T13:39:58;24.90;99.90
15698;DHT22;7949;48.726;9.102;2022-10-23T13:42:25;24.60;99.90
15698;DHT22;7949;48.726;9.102;2022-10-23T13:44:54;24.20;99.90
15698;DHT22;7949;48.726;9.102;2022-10-23T13:47:22;23.70;99.90
15698;DHT22;7949;48.726;9.102;2022-10-23T13:49:49;23.30;99.90
15698;DHT22;7949;48.726;9.102;2022-10-23T13:52:18;23.00;99.90
15698;DHT22;7949;48.726;9.102;2022-10-23T13:54:48;22.70;99.90
15698;DHT22;7949;48.726;9.102;2022-10-23T13:57:15;22.40;99.90
15698;DHT22;7949;48.726;9.102;2022-10-23T13:59:42;22.20;99.90
15698;DHT22;7949;48.726;9.102;2022-10-23T14:02:18;22.10;99.90
15698;DHT22;7949;48.726;9.102;2022-10-23T14:04:45;21.90;99.90
15698;DHT22;7949;48.726;9.102;2022-10-23T14:07:12;21.70;99.90
15698;DHT22;7949;48.726;9.102;2022-10-23T14:09:38;21.50;99.90
15698;DHT22;7949;48.726;9.102;2022-10-23T14:12:06;21.40;99.90
15698;DHT22;7949;48.726;9.102;2022-10-23T14:14:32;21.30;99.90
15698;DHT22;7949;48.726;9.102;2022-10-23T14:16:59;21.20;99.90
15698;DHT22;7949;48.726;9.102;2022-10-23T14:19:28;21.00;99.90
15698;DHT22;7949;48.726;9.102;2022-10-23T14:21:55;21.00;99.90
15698;DHT22;7949;48.726;9.102;2022-10-23T14:24:22;20.90;99.90
15698;DHT22;7949;48.726;9.102;2022-10-23T14:26:49;20.90;99.90
15698;DHT22;7949;48.726;9.102;2022-10-23T14:29:15;20.80;99.90
15698;DHT22;7949;48.726;9.102;2022-10-23T14:31:42;20.70;99.90
15698;DHT22;7949;48.726;9.102;2022-10-23T14:34:09;20.60;99.90
15698;DHT22;7949;48.726;9.102;2022-10-23T14:36:37;20.60;99.90
15698;DHT22;7949;48.726;9.102;2022-10-23T14:39:04;20.50;99.90
15698;DHT22;7949;48.726;9.102;2022-10-23T14:41:31;20.50;99.90
15698;DHT22;7949;48.726;9.102;2022-10-23T14:43:57;20.50;99.90
15698;DHT22;7949;48.726;9.102;2022-10-23T14:46:24;20.40;99.90
15698;DHT22;7949;48.726;9.102;2022-10-23T14:48:52;20.30;99.90
15698;DHT22;7949;48.726;9.102;2022-10-23T14:51:21;20.30;99.90
15698;DHT22;7949;48.726;9.102;2022-10-23T14:53:54;20.20;99.90
15698;DHT22;7949;48.726;9.102;2022-10-23T14:56:21;20.10;99.90
15698;DHT22;7949;48.726;9.102;2022-10-23T14:58:48;20.10;99.90
15698;DHT22;7949;48.726;9.102;2022-10-23T15:01:15;20.10;99.90
15698;DHT22;7949;48.726;9.102;2022-10-23T15:03:42;20.10;99.90
15698;DHT22;7949;48.726;9.102;2022-10-23T15:06:09;20.10;99.90
15698;DHT22;7949;48.726;9.102;2022-10-23T15:08:36;20.10;99.90
15698;DHT22;7949;48.726;9.102;2022-10-23T15:11:05;20.00;99.90
15698;DHT22;7949;48.726;9.102;2022-10-23T15:13:31;20.10;99.90
15698;DHT22;7949;48.726;9.102;2022-10-23T15:16:03;20.00;99.90
15698;DHT22;7949;48.726;9.102;2022-10-23T15:18:30;20.00;99.90
15698;DHT22;7949;48.726;9.102;2022-10-23T15:20:57;20.00;99.90
15698;DHT22;7949;48.726;9.102;2022-10-23T15:23:25;20.10;99.90
15698;DHT22;7949;48.726;9.102;2022-10-23T15:25:56;20.20;99.90
15698;DHT22;7949;48.726;9.102;2022-10-23T15:28:24;20.10;99.90
15698;DHT22;7949;48.726;9.102;2022-10-23T15:30:51;20.10;99.90
15698;DHT22;7949;48.726;9.102;2022-10-23T15:33:18;20.10;99.90
15698;DHT22;7949;48.726;9.102;2022-10-23T15:35:46;20.10;99.90
15698;DHT22;7949;48.726;9.102;2022-10-23T15:38:12;19.90;99.90
15698;DHT22;7949;48.726;9.102;2022-10-23T15:40:40;19.90;99.90
15698;DHT22;7949;48.726;9.102;2022-10-23T15:43:07;19.80;99.90
15698;DHT22;7949;48.726;9.102;2022-10-23T15:45:36;19.70;99.90
15698;DHT22;7949;48.726;9.102;2022-10-23T15:48:03;19.60;99.90
15698;DHT22;7949;48.726;9.102;2022-10-23T15:50:30;19.50;99.90
15698;DHT22;7949;48.726;9.102;2022-10-23T15:52:58;19.30;99.90
15698;DHT22;7949;48.726;9.102;2022-10-23T15:55:25;19.20;99.90
15698;DHT22;7949;48.726;9.102;2022-10-23T15:57:52;19.20;99.90
15698;DHT22;7949;48.726;9.102;2022-10-23T16:00:19;19.10;99.90
15698;DHT22;7949;48.726;9.102;2022-10-23T16:02:48;18.90;99.90
15698;DHT22;7949;48.726;9.102;2022-10-23T16:05:15;18.80;99.90
15698;DHT22;7949;48.726;9.102;2022-10-23T16:07:41;18.60;99.90
15698;DHT22;7949;48.726;9.102;2022-10-23T16:10:08;18.60;99.90
15698;DHT22;7949;48.726;9.102;2022-10-23T16:12:35;18.50;99.90
15698;DHT22;7949;48.726;9.102;2022-10-23T16:15:02;18.40;99.90